createdAt,value
2023-05-05T00:01:08.715Z,19.13
2023-05-05T00:03:35.913Z,19.06
2023-05-05T00:06:03.084Z,19.01
2023-05-05T00:08:29.952Z,18.95
2023-05-05T00:10:57.446Z,18.91
2023-05-05T00:13:24.435Z,18.86
2023-05-05T00:15:52.466Z,18.85
2023-05-05T00:18:19.864Z,18.98
2023-05-05T00:20:47.328Z,18.95
2023-05-05T00:23:15.534Z,18.74
2023-05-05T00:25:41.992Z,18.67
2023-05-05T00:28:08.567Z,18.64
2023-05-05T00:30:37.298Z,18.62
2023-05-05T00:33:04.048Z,18.55
2023-05-05T00:35:30.604Z,18.50
2023-05-05T00:37:57.128Z,18.46
2023-05-05T00:40:25.023Z,18.41
2023-05-05T00:42:51.644Z,18.41
2023-05-05T00:45:19.924Z,18.36
2023-05-05T00:47:49.038Z,18.37
2023-05-05T00:50:26.927Z,18.38
2023-05-05T00:52:56.095Z,18.34
2023-05-05T00:55:22.689Z,18.41
2023-05-05T00:57:49.919Z,18.34
2023-05-05T01:00:16.869Z,18.36
2023-05-05T01:02:44.200Z,18.25
2023-05-05T01:05:13.206Z,18.29
2023-05-05T01:07:45.742Z,18.26
2023-05-05T01:10:20.364Z,18.25
2023-05-05T01:13:14.958Z,18.24
2023-05-05T01:15:51.850Z,18.06
2023-05-05T01:18:40.178Z,18.04
2023-05-05T01:21:43.122Z,18.04
2023-05-05T01:24:38.922Z,18.02
2023-05-05T01:27:20.384Z,17.98
2023-05-05T01:30:10.565Z,17.87
2023-05-05T01:32:45.835Z,17.80
2023-05-05T01:35:18.141Z,17.81
2023-05-05T01:37:52.128Z,17.89
2023-05-05T01:40:26.742Z,17.97
2023-05-05T01:42:55.501Z,17.96
2023-05-05T01:45:26.341Z,17.99
2023-05-05T01:47:55.795Z,17.97
2023-05-05T01:50:24.580Z,17.91
2023-05-05T01:52:52.635Z,17.90
2023-05-05T01:55:21.555Z,17.79
2023-05-05T01:57:49.934Z,17.79
2023-05-05T02:00:19.410Z,17.80
2023-05-05T02:02:49.171Z,17.84
2023-05-05T02:05:19.196Z,17.80
2023-05-05T02:07:46.240Z,17.81
2023-05-05T02:10:13.688Z,17.78
2023-05-05T02:12:42.682Z,17.76
2023-05-05T02:15:10.374Z,17.72
2023-05-05T02:17:40.622Z,17.75
2023-05-05T02:20:09.361Z,17.65
2023-05-05T02:22:36.079Z,17.71
2023-05-05T02:25:03.334Z,17.61
2023-05-05T02:27:32.573Z,17.54
2023-05-05T02:30:07.086Z,17.55
2023-05-05T02:32:39.449Z,17.48
2023-05-05T02:35:36.427Z,17.57
2023-05-05T02:38:06.090Z,17.46
2023-05-05T02:40:40.682Z,17.48
2023-05-05T02:43:10.865Z,17.43
2023-05-05T02:45:38.324Z,17.44
2023-05-05T02:48:05.977Z,17.31
2023-05-05T02:50:36.991Z,17.27
2023-05-05T02:53:25.180Z,17.27
2023-05-05T02:55:54.396Z,17.24
2023-05-05T02:58:34.589Z,17.08
2023-05-05T03:01:25.407Z,17.03
2023-05-05T03:04:03.722Z,16.98
2023-05-05T03:06:39.346Z,17.01
2023-05-05T03:09:27.649Z,17.05
2023-05-05T03:12:10.123Z,17.03
2023-05-05T03:14:55.356Z,17.01
2023-05-05T03:17:24.841Z,17.01
2023-05-05T03:19:52.160Z,16.99
2023-05-05T03:22:19.596Z,16.99
2023-05-05T03:24:51.390Z,16.95
2023-05-05T03:27:21.699Z,16.95
2023-05-05T03:29:48.212Z,16.93
2023-05-05T03:32:15.841Z,16.88
2023-05-05T03:34:43.384Z,16.86
2023-05-05T03:37:09.888Z,16.87
2023-05-05T03:39:38.261Z,16.82
2023-05-05T03:42:05.878Z,16.80
2023-05-05T03:44:35.261Z,16.66
2023-05-05T03:47:01.815Z,16.67
2023-05-05T03:49:30.449Z,16.61
2023-05-05T03:51:57.594Z,16.63
2023-05-05T03:54:24.214Z,16.62
2023-05-05T03:56:51.489Z,16.61
2023-05-05T03:59:18.069Z,16.52
2023-05-05T04:01:46.560Z,16.53
2023-05-05T04:04:13.331Z,16.56
2023-05-05T04:06:40.718Z,16.50
2023-05-05T04:09:07.811Z,16.48
2023-05-05T04:11:35.392Z,16.38
2023-05-05T04:14:01.978Z,16.45
2023-05-05T04:16:30.990Z,16.46
2023-05-05T04:18:58.622Z,16.48
2023-05-05T04:21:25.286Z,16.43
2023-05-05T04:23:52.328Z,16.37
2023-05-05T04:26:20.826Z,16.34
2023-05-05T04:28:47.395Z,16.26
2023-05-05T04:31:15.718Z,16.31
2023-05-05T04:33:43.743Z,16.31
2023-05-05T04:36:11.037Z,16.28
2023-05-05T04:38:37.755Z,16.25
2023-05-05T04:41:06.447Z,16.21
2023-05-05T04:43:33.984Z,16.17
2023-05-05T04:46:00.866Z,16.19
2023-05-05T04:48:30.874Z,16.19
2023-05-05T04:50:57.402Z,16.19
2023-05-05T04:53:23.934Z,16.21
2023-05-05T04:55:50.628Z,16.22
2023-05-05T04:58:17.841Z,16.22
2023-05-05T05:00:45.240Z,16.22
2023-05-05T05:03:12.105Z,16.10
2023-05-05T05:05:38.690Z,16.14
2023-05-05T05:08:05.577Z,16.16
2023-05-05T05:10:32.140Z,16.16
2023-05-05T05:12:58.761Z,16.14
2023-05-05T05:15:25.650Z,16.14
2023-05-05T05:17:52.261Z,15.98
2023-05-05T05:20:19.012Z,16.06
2023-05-05T05:22:46.373Z,16.06
2023-05-05T05:25:16.989Z,16.09
2023-05-05T05:27:44.144Z,16.08
2023-05-05T05:30:11.749Z,16.09
2023-05-05T05:32:38.550Z,15.98
2023-05-05T05:35:06.027Z,16.00
2023-05-05T05:37:37.044Z,15.99
2023-05-05T05:40:07.548Z,16.00
2023-05-05T05:42:35.286Z,15.94
2023-05-05T05:45:03.273Z,16.02
2023-05-05T05:47:30.433Z,16.15
2023-05-05T05:49:57.874Z,16.08
2023-05-05T05:52:24.508Z,16.08
2023-05-05T05:54:51.389Z,16.03
2023-05-05T05:57:18.867Z,16.05
2023-05-05T05:59:45.751Z,16.08
2023-05-05T06:02:12.427Z,16.14
2023-05-05T06:04:39.262Z,16.01
2023-05-05T06:07:06.235Z,16.00
2023-05-05T06:09:32.764Z,16.03
2023-05-05T06:11:59.615Z,16.04
2023-05-05T06:14:26.477Z,16.12
2023-05-05T06:16:53.688Z,16.14
2023-05-05T06:19:22.185Z,16.18
2023-05-05T06:21:48.934Z,16.15
2023-05-05T06:24:15.436Z,16.19
2023-05-05T06:26:42.092Z,16.24
2023-05-05T06:29:10.464Z,16.25
2023-05-05T06:31:38.415Z,16.29
2023-05-05T06:34:04.967Z,16.31
2023-05-05T06:36:32.305Z,16.36
2023-05-05T06:38:58.910Z,16.43
2023-05-05T06:41:25.472Z,16.48
2023-05-05T06:43:51.986Z,16.51
2023-05-05T06:46:18.625Z,16.53
2023-05-05T06:48:45.550Z,16.54
2023-05-05T06:51:12.131Z,16.54
2023-05-05T06:53:38.629Z,16.52
2023-05-05T06:56:05.392Z,16.54
2023-05-05T06:58:32.052Z,16.55
2023-05-05T07:00:58.613Z,16.55
2023-05-05T07:03:25.402Z,16.54
2023-05-05T07:05:53.847Z,16.54
2023-05-05T07:08:20.369Z,16.58
2023-05-05T07:10:47.213Z,16.60
2023-05-05T07:13:16.231Z,16.60
2023-05-05T07:15:49.132Z,16.61
2023-05-05T07:18:16.884Z,16.64
2023-05-05T07:20:46.705Z,16.62
2023-05-05T07:23:13.282Z,16.67
2023-05-05T07:25:39.829Z,16.74
2023-05-05T07:28:06.484Z,16.78
2023-05-05T07:30:33.023Z,16.79
2023-05-05T07:32:59.793Z,16.86
2023-05-05T07:35:26.450Z,16.92
2023-05-05T07:37:52.988Z,16.93
2023-05-05T07:40:19.718Z,16.98
2023-05-05T07:42:47.407Z,17.01
2023-05-05T07:45:13.924Z,17.05
2023-05-05T07:47:40.761Z,17.09
2023-05-05T07:50:08.376Z,17.13
2023-05-05T07:52:46.661Z,17.19
2023-05-05T07:55:18.174Z,17.25
2023-05-05T07:57:44.796Z,17.26
2023-05-05T08:00:13.270Z,17.26
2023-05-05T08:02:40.204Z,17.28
2023-05-05T08:05:07.573Z,17.35
2023-05-05T08:07:36.434Z,17.38
2023-05-05T08:10:03.066Z,17.41
2023-05-05T08:12:29.659Z,17.43
2023-05-05T08:14:56.172Z,17.48
2023-05-05T08:17:25.733Z,17.53
2023-05-05T08:19:52.965Z,17.58
2023-05-05T08:22:21.298Z,17.64
2023-05-05T08:24:47.868Z,17.69
2023-05-05T08:27:14.684Z,17.74
2023-05-05T08:29:41.201Z,17.76
2023-05-05T08:32:07.763Z,17.82
2023-05-05T08:34:34.311Z,17.83
2023-05-05T08:37:00.872Z,17.85
2023-05-05T08:39:27.447Z,17.89
2023-05-05T08:41:53.964Z,17.86
2023-05-05T08:44:20.599Z,17.85
2023-05-05T08:46:48.587Z,17.86
2023-05-05T08:49:17.434Z,17.77
2023-05-05T08:51:46.018Z,17.81
2023-05-05T08:54:19.818Z,17.81
2023-05-05T08:56:49.603Z,17.83
2023-05-05T08:59:17.293Z,17.86
2023-05-05T09:01:44.705Z,17.83
2023-05-05T09:04:11.311Z,17.83
2023-05-05T09:06:37.931Z,17.85
2023-05-05T09:09:04.523Z,17.83
2023-05-05T09:11:33.887Z,17.81
2023-05-05T09:14:01.730Z,17.82
2023-05-05T09:16:28.240Z,17.86
2023-05-05T09:19:02.472Z,17.90
2023-05-05T09:21:29.414Z,17.90
2023-05-05T09:24:12.699Z,17.94
2023-05-05T09:26:47.728Z,17.93
2023-05-05T09:29:21.452Z,17.92
2023-05-05T09:32:05.503Z,17.96
2023-05-05T09:34:34.941Z,17.97
2023-05-05T09:37:01.649Z,18.00
2023-05-05T09:39:28.316Z,17.99
2023-05-05T09:41:54.948Z,17.99
2023-05-05T09:44:35.252Z,18.02
2023-05-05T09:47:03.772Z,18.00
2023-05-05T09:49:31.861Z,18.00
2023-05-05T09:51:58.465Z,17.99
2023-05-05T09:54:29.762Z,17.98
2023-05-05T09:56:57.268Z,18.00
2023-05-05T09:59:24.389Z,18.03
2023-05-05T10:01:51.622Z,18.01
2023-05-05T10:04:29.573Z,18.04
2023-05-05T10:06:58.051Z,18.04
2023-05-05T10:09:25.950Z,18.06
2023-05-05T10:11:53.862Z,18.04
2023-05-05T10:14:20.790Z,18.06
2023-05-05T10:16:50.534Z,18.06
2023-05-05T10:19:19.550Z,18.05
2023-05-05T10:21:51.178Z,18.03
2023-05-05T10:24:22.625Z,18.08
2023-05-05T10:26:50.428Z,17.97
2023-05-05T10:29:40.024Z,17.97
2023-05-05T10:32:53.564Z,17.90
2023-05-05T10:35:23.020Z,17.80
2023-05-05T10:37:49.960Z,17.75
2023-05-05T10:40:17.832Z,17.63
2023-05-05T10:42:45.438Z,17.53
2023-05-05T10:45:12.306Z,17.40
2023-05-05T10:47:40.297Z,17.27
2023-05-05T10:50:25.993Z,17.23
2023-05-05T10:53:07.615Z,17.17
2023-05-05T10:55:46.310Z,17.04
2023-05-05T10:58:55.530Z,17.00
2023-05-05T11:01:29.771Z,16.87
2023-05-05T11:04:19.240Z,16.83
2023-05-05T11:07:14.736Z,16.74
2023-05-05T11:09:56.025Z,16.58
2023-05-05T11:12:22.731Z,16.45
2023-05-05T11:15:27.505Z,16.16
2023-05-05T11:17:57.699Z,15.85
2023-05-05T11:20:36.862Z,15.72
2023-05-05T11:23:03.424Z,15.59
2023-05-05T11:25:42.036Z,15.48
2023-05-05T11:28:16.960Z,15.55
2023-05-05T11:30:59.230Z,15.46
2023-05-05T11:33:35.950Z,15.46
2023-05-05T11:36:06.777Z,15.40
2023-05-05T11:38:36.277Z,15.40
2023-05-05T11:41:17.274Z,15.43
2023-05-05T11:43:43.862Z,15.40
2023-05-05T11:46:15.469Z,15.44
2023-05-05T11:48:48.455Z,15.50
2023-05-05T11:51:16.836Z,15.32
2023-05-05T11:53:48.337Z,15.26
2023-05-05T11:56:24.866Z,15.34
2023-05-05T11:59:10.585Z,15.34
2023-05-05T12:01:41.359Z,15.31
2023-05-05T12:04:15.287Z,15.37
2023-05-05T12:06:42.618Z,15.41
2023-05-05T12:09:20.995Z,15.44
2023-05-05T12:11:50.464Z,15.43
2023-05-05T12:14:16.947Z,15.49
2023-05-05T12:17:02.543Z,15.55
2023-05-05T12:19:32.982Z,15.55
2023-05-05T12:22:04.252Z,15.48
2023-05-05T12:24:30.866Z,15.50
2023-05-05T12:27:10.713Z,15.54
2023-05-05T12:29:37.719Z,15.49
2023-05-05T12:32:04.482Z,15.56
2023-05-05T12:34:32.119Z,15.60
2023-05-05T12:36:58.878Z,15.53
2023-05-05T12:39:35.417Z,15.59
2023-05-05T12:42:03.582Z,15.50
2023-05-05T12:44:39.813Z,15.48
2023-05-05T12:47:07.228Z,15.49
2023-05-05T12:49:51.245Z,15.46
2023-05-05T12:52:18.365Z,15.48
2023-05-05T12:54:58.810Z,15.49
2023-05-05T12:57:26.089Z,15.47
2023-05-05T12:59:53.337Z,15.51
2023-05-05T13:02:20.717Z,15.49
2023-05-05T13:04:52.355Z,15.54
2023-05-05T13:07:20.987Z,15.49
2023-05-05T13:09:49.228Z,15.56
2023-05-05T13:12:17.828Z,15.53
2023-05-05T13:14:44.949Z,15.55
2023-05-05T13:17:11.729Z,15.45
2023-05-05T13:19:42.453Z,15.47
2023-05-05T13:22:13.150Z,15.46
2023-05-05T13:24:50.728Z,15.37
2023-05-05T13:27:18.839Z,15.35
2023-05-05T13:29:45.374Z,15.37
2023-05-05T13:32:11.944Z,15.35
2023-05-05T13:34:39.263Z,15.23
2023-05-05T13:37:06.156Z,15.14
2023-05-05T13:39:32.683Z,15.18
2023-05-05T13:41:59.286Z,15.16
2023-05-05T13:44:25.899Z,15.25
2023-05-05T13:46:52.552Z,15.27
2023-05-05T13:49:20.038Z,15.34
2023-05-05T13:51:47.036Z,15.35
2023-05-05T13:54:13.830Z,15.43
2023-05-05T13:56:40.568Z,15.42
2023-05-05T13:59:07.184Z,15.43
2023-05-05T14:01:33.831Z,15.58
2023-05-05T14:04:02.806Z,15.63
2023-05-05T14:06:31.251Z,15.63
2023-05-05T14:08:57.854Z,15.65
2023-05-05T14:11:24.405Z,15.70
2023-05-05T14:13:52.004Z,15.68
2023-05-05T14:16:18.858Z,15.67
2023-05-05T14:18:45.616Z,15.70
2023-05-05T14:21:12.273Z,15.59
2023-05-05T14:23:38.852Z,15.48
2023-05-05T14:26:05.449Z,15.49
2023-05-05T14:28:31.967Z,15.47
2023-05-05T14:30:58.489Z,15.40
2023-05-05T14:33:25.488Z,15.48
2023-05-05T14:35:52.115Z,15.48
2023-05-05T14:38:18.641Z,15.47
2023-05-05T14:40:45.314Z,15.85
2023-05-05T14:43:11.888Z,15.57
2023-05-05T14:45:38.437Z,15.54
2023-05-05T14:48:05.071Z,15.56
2023-05-05T14:50:31.647Z,15.61
2023-05-05T14:52:58.220Z,15.66
2023-05-05T14:55:25.026Z,15.68
2023-05-05T14:57:51.899Z,15.78
2023-05-05T15:00:18.615Z,15.86
2023-05-05T15:02:45.490Z,15.94
2023-05-05T15:05:12.345Z,15.98
2023-05-05T15:07:40.130Z,15.98
2023-05-05T15:10:07.593Z,15.94
2023-05-05T15:12:34.351Z,16.01
2023-05-05T15:15:00.978Z,15.97
2023-05-05T15:17:27.637Z,15.97
2023-05-05T15:19:54.259Z,15.98
2023-05-05T15:22:20.780Z,16.01
2023-05-05T15:24:47.301Z,15.96
2023-05-05T15:27:14.123Z,15.93
2023-05-05T15:29:40.653Z,15.96
2023-05-05T15:32:07.401Z,15.97
2023-05-05T15:34:34.077Z,15.92
2023-05-05T15:37:00.613Z,15.91
2023-05-05T15:39:27.100Z,15.93
2023-05-05T15:41:53.676Z,15.97
2023-05-05T15:44:20.143Z,15.99
2023-05-05T15:49:13.322Z,16.01
2023-05-05T15:51:39.874Z,16.01
2023-05-05T15:54:06.553Z,16.01
2023-05-05T15:56:33.690Z,16.13
2023-05-05T15:59:00.324Z,16.13
2023-05-05T16:01:26.930Z,16.16
2023-05-05T16:03:53.467Z,16.16
2023-05-05T16:06:19.979Z,16.17
2023-05-05T16:08:47.717Z,16.18
2023-05-05T16:11:14.409Z,16.15
2023-05-05T16:13:42.391Z,16.21
2023-05-05T16:16:08.964Z,16.46
2023-05-05T16:18:35.501Z,16.71
2023-05-05T16:21:02.620Z,17.00
2023-05-05T16:23:29.104Z,17.23
2023-05-05T16:25:55.637Z,17.30
2023-05-05T16:28:22.301Z,17.29
2023-05-05T16:30:48.820Z,17.27
2023-05-05T16:33:15.450Z,17.23
2023-05-05T16:35:45.721Z,17.25
2023-05-05T16:38:13.117Z,17.37
2023-05-05T16:40:40.139Z,17.58
2023-05-05T16:43:06.636Z,17.76
2023-05-05T16:45:33.216Z,17.96
2023-05-05T16:47:59.834Z,18.02
2023-05-05T16:50:26.646Z,18.16
2023-05-05T16:52:53.126Z,18.25
2023-05-05T16:55:19.758Z,18.32
2023-05-05T16:57:47.203Z,18.35
2023-05-05T17:00:14.472Z,18.37
2023-05-05T17:02:41.124Z,18.47
2023-05-05T17:05:08.285Z,18.44
2023-05-05T17:07:35.036Z,18.50
2023-05-05T17:10:01.693Z,18.53
2023-05-05T17:12:28.331Z,18.50
2023-05-05T17:14:54.906Z,18.60
2023-05-05T17:17:21.410Z,18.46
2023-05-05T17:19:47.907Z,18.43
2023-05-05T17:22:14.390Z,18.39
2023-05-05T17:24:40.984Z,18.31
2023-05-05T17:27:07.575Z,18.24
2023-05-05T17:29:39.320Z,18.16
2023-05-05T17:32:06.049Z,18.07
2023-05-05T17:34:32.679Z,18.03
2023-05-05T17:36:59.217Z,17.95
2023-05-05T17:39:25.821Z,17.82
2023-05-05T17:41:52.352Z,17.73
2023-05-05T17:44:18.809Z,17.65
2023-05-05T17:46:45.561Z,17.49
2023-05-05T17:49:12.268Z,17.46
2023-05-05T17:51:38.878Z,17.59
2023-05-05T17:54:05.595Z,17.40
2023-05-05T17:56:32.063Z,17.34
2023-05-05T17:58:58.546Z,17.37
2023-05-05T18:01:26.691Z,17.29
2023-05-05T18:03:53.342Z,17.29
2023-05-05T18:06:19.932Z,17.14
2023-05-05T18:08:46.613Z,17.09
2023-05-05T18:11:13.190Z,17.03
2023-05-05T18:13:39.819Z,17.08
2023-05-05T18:16:06.739Z,17.04
2023-05-05T18:18:33.380Z,17.03
2023-05-05T18:21:00.041Z,17.00
2023-05-05T18:23:26.633Z,16.97
2023-05-05T18:25:53.167Z,16.98
2023-05-05T18:28:20.306Z,16.96
2023-05-05T18:30:46.824Z,16.97
2023-05-05T18:33:13.369Z,16.94
2023-05-05T18:35:39.947Z,16.91
2023-05-05T18:38:06.465Z,16.86
2023-05-05T18:40:32.968Z,16.87
2023-05-05T18:43:00.601Z,16.91
2023-05-05T18:45:27.211Z,16.91
2023-05-05T18:47:53.854Z,16.83
2023-05-05T18:50:20.349Z,16.76
2023-05-05T18:52:46.905Z,16.82
2023-05-05T18:55:13.612Z,16.70
2023-05-05T18:57:40.375Z,16.71
2023-05-05T19:00:07.435Z,16.63
2023-05-05T19:02:33.969Z,16.64
2023-05-05T19:05:00.651Z,16.65
2023-05-05T19:07:34.936Z,16.62
2023-05-05T19:10:04.142Z,16.63
2023-05-05T19:12:30.634Z,16.57
2023-05-05T19:14:57.120Z,16.56
2023-05-05T19:17:23.723Z,16.55
2023-05-05T19:19:50.606Z,16.54
2023-05-05T19:22:22.876Z,16.49
2023-05-05T19:24:49.376Z,16.48
2023-05-05T19:27:17.105Z,16.46
2023-05-05T19:29:44.064Z,16.42
2023-05-05T19:32:10.886Z,16.38
2023-05-05T19:34:37.549Z,16.35
2023-05-05T19:37:04.106Z,16.32
2023-05-05T19:39:31.210Z,16.33
2023-05-05T19:41:57.725Z,16.27
2023-05-05T19:44:24.289Z,16.24
2023-05-05T19:46:52.518Z,16.25
2023-05-05T19:49:19.124Z,16.28
2023-05-05T19:51:47.570Z,16.21
2023-05-05T19:54:14.147Z,16.15
2023-05-05T19:56:40.757Z,16.14
2023-05-05T19:59:07.394Z,16.14
2023-05-05T20:01:35.057Z,16.13
2023-05-05T20:04:03.151Z,16.10
2023-05-05T20:06:29.657Z,16.06
2023-05-05T20:08:56.186Z,16.07
2023-05-05T20:11:22.950Z,16.02
2023-05-05T20:13:49.808Z,15.99
2023-05-05T20:16:16.532Z,15.99
2023-05-05T20:18:43.558Z,15.98
2023-05-05T20:21:10.208Z,15.91
2023-05-05T20:23:37.096Z,15.88
2023-05-05T20:26:03.685Z,15.86
2023-05-05T20:28:31.707Z,15.78
2023-05-05T20:30:58.421Z,15.78
2023-05-05T20:33:24.961Z,15.78
2023-05-05T20:35:51.474Z,15.75
2023-05-05T20:38:18.010Z,15.72
2023-05-05T20:40:44.542Z,15.74
2023-05-05T20:43:11.117Z,15.74
2023-05-05T20:45:37.753Z,15.69
2023-05-05T20:48:05.458Z,15.67
2023-05-05T20:50:32.164Z,15.62
2023-05-05T20:52:58.843Z,15.56
2023-05-05T20:55:25.534Z,15.54
2023-05-05T20:57:52.058Z,15.56
2023-05-05T21:00:18.595Z,15.56
2023-05-05T21:02:45.289Z,15.54
2023-05-05T21:05:12.509Z,15.54
2023-05-05T21:07:39.067Z,15.46
2023-05-05T21:10:06.199Z,15.44
2023-05-05T21:12:34.019Z,15.43
2023-05-05T21:15:00.696Z,15.43
2023-05-05T21:17:27.677Z,15.44
2023-05-05T21:19:55.061Z,15.63
2023-05-05T21:22:21.855Z,15.63
2023-05-05T21:24:48.488Z,15.60
2023-05-05T21:27:15.105Z,15.58
2023-05-05T21:29:41.637Z,15.56
2023-05-05T21:32:10.287Z,15.55
2023-05-05T21:34:37.496Z,15.49
2023-05-05T21:37:04.925Z,15.51
2023-05-05T21:39:32.974Z,15.49
2023-05-05T21:42:00.567Z,15.48
2023-05-05T21:44:28.065Z,15.51
2023-05-05T21:46:55.026Z,15.48
2023-05-05T21:49:21.648Z,15.46
2023-05-05T21:51:48.138Z,15.43
2023-05-05T21:54:14.661Z,15.41
2023-05-05T21:56:41.177Z,15.39
2023-05-05T21:59:07.676Z,15.40
2023-05-05T22:01:34.856Z,15.36
2023-05-05T22:04:01.591Z,15.34
2023-05-05T22:06:28.169Z,15.35
2023-05-05T22:08:54.749Z,15.33
2023-05-05T22:11:21.320Z,15.34
2023-05-05T22:13:47.917Z,15.31
2023-05-05T22:16:17.413Z,15.27
2023-05-05T22:18:44.341Z,15.36
2023-05-05T22:21:10.962Z,15.38
2023-05-05T22:23:38.880Z,15.38
2023-05-05T22:26:05.369Z,15.35
2023-05-05T22:28:31.882Z,15.37
2023-05-05T22:30:58.375Z,15.35
2023-05-05T22:33:24.996Z,15.36
2023-05-05T22:35:52.013Z,15.34
2023-05-05T22:38:18.638Z,15.34
2023-05-05T22:40:45.799Z,15.30
2023-05-05T22:43:12.338Z,15.29
2023-05-05T22:45:39.030Z,15.26
2023-05-05T22:48:05.904Z,15.21
2023-05-05T22:50:32.528Z,15.20
2023-05-05T22:52:59.063Z,15.16
2023-05-05T22:55:26.686Z,15.15
2023-05-05T22:57:53.253Z,15.16
2023-05-05T23:00:19.786Z,15.14
2023-05-05T23:02:46.330Z,15.11
2023-05-05T23:05:13.050Z,15.10
2023-05-05T23:07:39.667Z,15.06
2023-05-05T23:10:06.659Z,15.03
2023-05-05T23:12:33.251Z,15.02
2023-05-05T23:14:59.800Z,14.95
2023-05-05T23:17:26.336Z,15.00
2023-05-05T23:19:53.062Z,14.95
2023-05-05T23:22:19.557Z,14.97
2023-05-05T23:24:46.107Z,14.97
2023-05-05T23:27:13.187Z,14.91
2023-05-05T23:29:39.789Z,14.92
2023-05-05T23:32:06.407Z,14.88
2023-05-05T23:34:33.071Z,14.89
2023-05-05T23:36:59.589Z,14.81
2023-05-05T23:39:26.131Z,14.84
2023-05-05T23:41:52.648Z,14.84
2023-05-05T23:44:19.129Z,14.81
2023-05-05T23:46:45.791Z,14.81
2023-05-05T23:49:12.315Z,14.79
2023-05-05T23:51:38.850Z,14.78
2023-05-05T23:54:05.421Z,14.79
2023-05-05T23:56:31.992Z,14.75
2023-05-05T23:58:58.477Z,14.72
